Terminal Aerodrome Forecast
Issued by NWS Cleveland, OH

Home | Current Version | Previous Version | Text Only | Print | Product List | Glossary On
Versions: 1 2 3 4 5 6 7 8 9 10 11 12 13 14 15 16 17 18 19 20 21 22 23 24 25
601
FTUS41 KCLE 100537
TAFCAK
TAF
KCAK 100537Z 1006/1106 27012KT 4SM -SN OVC015
      TEMPO 1006/1007 2SM -SN OVC022
     FM100800 27012KT P6SM -SHSN OVC025
     FM101500 25012KT 5SM -SHSN OVC025
     FM101800 27012KT 2SM -SN OVC018
     FM110200 27012KT 6SM -SHSN BKN028=

USA.gov is the U.S. government's official web portal to all federal, state and local government web resources and services.